createdAt,value
2023-01-18T00:00:29.824Z,-0.10
2023-01-18T00:02:57.375Z,-0.10
2023-01-18T00:05:24.591Z,-0.10
2023-01-18T00:07:52.942Z,-0.10
2023-01-18T00:10:20.240Z,-0.20
2023-01-18T00:12:46.906Z,-0.30
2023-01-18T00:15:13.672Z,-0.30
2023-01-18T00:17:40.615Z,-0.30
2023-01-18T00:20:08.307Z,-0.30
2023-01-18T00:22:34.968Z,-0.30
2023-01-18T00:25:01.727Z,-0.40
2023-01-18T00:27:28.407Z,-0.50
2023-01-18T00:29:55.033Z,-0.40
2023-01-18T00:32:21.709Z,-0.40
2023-01-18T00:34:50.472Z,-0.40
2023-01-18T00:37:17.302Z,-0.50
2023-01-18T00:39:43.982Z,-0.40
2023-01-18T00:42:10.678Z,-0.40
2023-01-18T00:44:37.398Z,-0.40
2023-01-18T00:47:04.100Z,-0.40
2023-01-18T00:49:30.776Z,-0.40
2023-01-18T00:51:58.876Z,-0.40
2023-01-18T00:54:25.648Z,-0.50
2023-01-18T00:56:52.359Z,-0.50
2023-01-18T00:59:19.065Z,-0.50
2023-01-18T01:01:45.848Z,-0.50
2023-01-18T01:04:12.691Z,-0.50
2023-01-18T01:06:39.347Z,-0.50
2023-01-18T01:09:06.047Z,-0.40
2023-01-18T01:11:32.714Z,-0.40
2023-01-18T01:13:59.463Z,-0.40
2023-01-18T01:16:26.208Z,-0.50
2023-01-18T01:18:53.762Z,-0.50
2023-01-18T01:21:20.473Z,-0.40
2023-01-18T01:23:47.155Z,-0.40
2023-01-18T01:26:13.829Z,-0.30
2023-01-18T01:28:42.825Z,-0.30
2023-01-18T01:31:14.591Z,-0.20
2023-01-18T01:33:41.774Z,-0.20
2023-01-18T01:36:13.168Z,-0.10
2023-01-18T01:38:40.563Z,-0.10
2023-01-18T01:41:08.960Z,0.00
2023-01-18T01:43:45.332Z,0.00
2023-01-18T01:46:32.265Z,0.00
2023-01-18T01:49:08.829Z,0.10
2023-01-18T01:51:39.562Z,0.10
2023-01-18T01:54:10.687Z,0.10
2023-01-18T01:56:37.821Z,0.10
2023-01-18T01:59:05.928Z,0.10
2023-01-18T02:01:34.616Z,0.10
2023-01-18T02:04:02.257Z,0.10
2023-01-18T02:06:34.688Z,0.20
2023-01-18T02:09:03.753Z,0.20
2023-01-18T02:11:31.149Z,0.10
2023-01-18T02:14:02.574Z,0.20
2023-01-18T02:16:49.539Z,0.10
2023-01-18T02:19:47.071Z,0.10
2023-01-18T02:22:32.072Z,0.10
2023-01-18T02:25:16.812Z,0.10
2023-01-18T02:27:50.954Z,0.10
2023-01-18T02:30:31.805Z,0.10
2023-01-18T02:33:13.051Z,0.10
2023-01-18T02:35:53.072Z,0.10
2023-01-18T02:38:21.703Z,0.00
2023-01-18T02:41:25.698Z,0.00
2023-01-18T02:43:56.095Z,-0.10
2023-01-18T02:46:24.378Z,0.00
2023-01-18T02:48:52.024Z,0.00
2023-01-18T02:51:18.694Z,0.10
2023-01-18T02:53:47.720Z,0.10
2023-01-18T02:56:23.186Z,0.20
2023-01-18T02:59:03.904Z,0.20
2023-01-18T03:01:59.608Z,0.20
2023-01-18T03:04:36.300Z,0.30
2023-01-18T03:07:08.992Z,0.30
2023-01-18T03:09:36.160Z,0.30
2023-01-18T03:12:05.962Z,0.40
2023-01-18T03:14:59.727Z,0.30
2023-01-18T03:17:37.543Z,0.40
2023-01-18T03:20:12.773Z,0.40
2023-01-18T03:22:48.385Z,0.30
2023-01-18T03:25:19.541Z,0.40
2023-01-18T03:27:48.728Z,0.40
2023-01-18T03:30:15.681Z,0.40
2023-01-18T03:32:43.294Z,0.30
2023-01-18T03:35:14.632Z,0.30
2023-01-18T03:37:44.626Z,0.30
2023-01-18T03:40:16.988Z,0.40
2023-01-18T03:43:09.246Z,0.40
2023-01-18T03:45:40.354Z,0.40
2023-01-18T03:48:08.575Z,0.40
2023-01-18T03:50:50.113Z,0.50
2023-01-18T03:53:45.768Z,0.40
2023-01-18T03:56:35.091Z,0.40
2023-01-18T03:59:04.304Z,0.40
2023-01-18T04:01:31.463Z,0.40
2023-01-18T04:03:58.176Z,0.40
2023-01-18T04:06:24.973Z,0.40
2023-01-18T04:08:52.773Z,0.30
2023-01-18T04:11:19.694Z,0.20
2023-01-18T04:13:46.413Z,0.20
2023-01-18T04:16:13.245Z,0.20
2023-01-18T04:18:39.994Z,0.30
2023-01-18T04:21:06.872Z,0.20
2023-01-18T04:23:33.550Z,0.20
2023-01-18T04:26:00.238Z,0.20
2023-01-18T04:28:27.079Z,0.20
2023-01-18T04:30:56.114Z,0.20
2023-01-18T04:33:24.128Z,0.30
2023-01-18T04:35:50.816Z,0.30
2023-01-18T04:38:17.503Z,0.20
2023-01-18T04:40:44.193Z,0.20
2023-01-18T04:43:10.883Z,0.20
2023-01-18T04:45:40.444Z,0.30
2023-01-18T04:48:07.220Z,0.40
2023-01-18T04:50:34.056Z,0.40
2023-01-18T04:53:01.114Z,0.40
2023-01-18T04:55:28.020Z,0.50
2023-01-18T04:57:56.054Z,0.50
2023-01-18T05:00:23.358Z,0.40
2023-01-18T05:02:50.449Z,0.40
2023-01-18T05:05:17.604Z,0.40
2023-01-18T05:07:44.291Z,0.40
2023-01-18T05:10:11.875Z,0.40
2023-01-18T05:12:38.595Z,0.40
2023-01-18T05:15:05.848Z,0.40
2023-01-18T05:17:33.223Z,0.40
2023-01-18T05:20:00.606Z,0.40
2023-01-18T05:22:27.933Z,0.40
2023-01-18T05:24:54.671Z,0.50
2023-01-18T05:27:22.021Z,0.50
2023-01-18T05:29:48.725Z,0.50
2023-01-18T05:32:15.507Z,0.60
2023-01-18T05:34:42.176Z,0.60
2023-01-18T05:37:08.985Z,0.60
2023-01-18T05:39:35.949Z,0.60
2023-01-18T05:42:02.654Z,0.60
2023-01-18T05:44:29.388Z,0.70
2023-01-18T05:46:57.565Z,0.70
2023-01-18T05:49:24.278Z,0.60
2023-01-18T05:51:51.255Z,0.60
2023-01-18T05:54:18.150Z,0.40
2023-01-18T05:56:44.864Z,0.30
2023-01-18T05:59:11.580Z,0.30
2023-01-18T06:01:38.341Z,0.10
2023-01-18T06:04:05.235Z,0.00
2023-01-18T06:06:33.926Z,-0.10
2023-01-18T06:09:01.746Z,-0.10
2023-01-18T06:11:28.426Z,-0.10
2023-01-18T06:13:55.121Z,-0.10
2023-01-18T06:16:21.987Z,-0.20
2023-01-18T06:18:48.768Z,-0.30
2023-01-18T06:21:15.479Z,-0.30
2023-01-18T06:23:42.175Z,-0.30
2023-01-18T06:26:11.592Z,-0.20
2023-01-18T06:28:38.247Z,-0.30
2023-01-18T06:31:05.282Z,-0.30
2023-01-18T06:33:31.954Z,-0.40
2023-01-18T06:35:58.603Z,-0.40
2023-01-18T06:38:25.323Z,-0.40
2023-01-18T06:40:52.026Z,-0.40
2023-01-18T06:43:18.736Z,-0.40
2023-01-18T06:45:57.228Z,-0.30
2023-01-18T06:48:25.289Z,-0.30
2023-01-18T06:50:52.560Z,-0.40
2023-01-18T06:53:20.420Z,-0.40
2023-01-18T06:56:00.799Z,-0.50
2023-01-18T06:58:29.061Z,-0.50
2023-01-18T07:00:57.153Z,-0.50
2023-01-18T07:03:24.734Z,-0.40
2023-01-18T07:06:02.688Z,-0.40
2023-01-18T07:08:30.795Z,-0.30
2023-01-18T07:10:57.974Z,-0.30
2023-01-18T07:13:25.179Z,-0.40
2023-01-18T07:15:58.013Z,-0.40
2023-01-18T07:18:26.651Z,-0.40
2023-01-18T07:21:06.857Z,-0.40
2023-01-18T07:23:35.831Z,-0.40
2023-01-18T07:26:03.602Z,-0.40
2023-01-18T07:28:31.507Z,-0.40
2023-01-18T07:30:58.576Z,-0.40
2023-01-18T07:33:25.320Z,-0.40
2023-01-18T07:35:53.264Z,-0.30
2023-01-18T07:38:20.984Z,-0.20
2023-01-18T07:40:48.411Z,-0.20
2023-01-18T07:43:16.857Z,-0.10
2023-01-18T07:45:44.612Z,0.00
2023-01-18T07:48:11.349Z,0.00
2023-01-18T07:50:38.028Z,0.00
2023-01-18T07:53:04.788Z,0.00
2023-01-18T07:55:32.238Z,0.10
2023-01-18T07:57:59.955Z,0.10
2023-01-18T08:00:27.980Z,0.20
2023-01-18T08:02:57.037Z,0.30
2023-01-18T08:05:25.675Z,0.30
2023-01-18T08:07:52.878Z,0.40
2023-01-18T08:10:21.075Z,0.40
2023-01-18T08:12:48.354Z,0.50
2023-01-18T08:15:15.332Z,0.60
2023-01-18T08:17:42.018Z,0.60
2023-01-18T08:20:09.468Z,0.60
2023-01-18T08:22:36.764Z,0.70
2023-01-18T08:25:04.060Z,0.80
2023-01-18T08:27:30.748Z,0.70
2023-01-18T08:29:57.466Z,0.70
2023-01-18T08:32:24.684Z,0.60
2023-01-18T08:34:51.378Z,0.50
2023-01-18T08:37:18.134Z,0.60
2023-01-18T08:39:44.838Z,0.70
2023-01-18T08:42:12.416Z,0.80
2023-01-18T08:44:39.504Z,0.80
2023-01-18T08:47:07.843Z,0.90
2023-01-18T08:49:34.617Z,0.90
2023-01-18T08:52:01.641Z,1.00
2023-01-18T08:54:28.323Z,0.90
2023-01-18T08:56:55.001Z,1.00
2023-01-18T08:59:21.763Z,0.90
2023-01-18T09:01:48.483Z,1.00
2023-01-18T09:04:15.462Z,1.00
2023-01-18T09:06:42.376Z,1.00
2023-01-18T09:09:09.044Z,1.00
2023-01-18T09:11:35.761Z,1.10
2023-01-18T09:14:02.540Z,1.10
2023-01-18T09:16:30.484Z,1.20
2023-01-18T09:18:57.510Z,1.30
2023-01-18T09:21:24.496Z,1.30
2023-01-18T09:23:51.241Z,1.30
2023-01-18T09:26:18.241Z,1.30
2023-01-18T09:28:45.015Z,1.30
2023-01-18T09:31:12.150Z,1.40
2023-01-18T09:33:41.176Z,1.50
2023-01-18T09:36:11.247Z,1.60
2023-01-18T09:38:39.062Z,1.60
2023-01-18T09:41:22.653Z,1.70
2023-01-18T09:43:53.728Z,1.80
2023-01-18T09:46:22.702Z,1.80
2023-01-18T09:48:57.915Z,1.80
2023-01-18T09:51:53.111Z,1.90
2023-01-18T09:54:43.606Z,1.90
2023-01-18T09:57:22.500Z,2.00
2023-01-18T09:59:58.471Z,2.10
2023-01-18T10:02:35.053Z,2.20
2023-01-18T10:05:16.247Z,2.20
2023-01-18T10:07:52.219Z,2.30
2023-01-18T10:10:19.466Z,2.30
2023-01-18T10:13:15.961Z,2.40
2023-01-18T10:15:42.547Z,2.30
2023-01-18T10:18:09.833Z,2.30
2023-01-18T10:20:47.299Z,2.20
2023-01-18T10:23:31.816Z,2.30
2023-01-18T10:26:30.308Z,2.20
2023-01-18T10:29:07.881Z,2.10
2023-01-18T10:31:45.084Z,2.00
2023-01-18T10:34:17.994Z,1.90
2023-01-18T10:36:50.742Z,2.10
2023-01-18T10:39:29.243Z,1.90
2023-01-18T10:42:01.689Z,1.90
2023-01-18T10:44:29.345Z,2.00
2023-01-18T10:47:00.872Z,1.90
2023-01-18T10:49:40.474Z,1.90
2023-01-18T10:52:26.236Z,1.80
2023-01-18T10:54:55.499Z,1.70
2023-01-18T10:57:30.244Z,1.60
2023-01-18T10:59:57.430Z,1.70
2023-01-18T11:02:31.745Z,1.70
2023-01-18T11:05:21.008Z,1.70
2023-01-18T11:07:47.990Z,1.90
2023-01-18T11:10:26.806Z,2.00
2023-01-18T11:12:53.489Z,2.20
2023-01-18T11:15:24.067Z,2.20
2023-01-18T11:17:50.809Z,2.20
2023-01-18T11:20:20.606Z,2.00
2023-01-18T11:22:54.772Z,2.00
2023-01-18T11:25:22.001Z,2.20
2023-01-18T11:27:50.103Z,2.30
2023-01-18T11:30:24.919Z,2.30
2023-01-18T11:32:52.226Z,2.30
2023-01-18T11:35:31.901Z,2.30
2023-01-18T11:38:03.446Z,2.10
2023-01-18T11:40:32.467Z,2.10
2023-01-18T11:43:04.033Z,2.20
2023-01-18T11:45:36.067Z,2.10
2023-01-18T11:48:11.985Z,2.10
2023-01-18T11:50:46.933Z,2.00
2023-01-18T11:53:25.617Z,2.10
2023-01-18T11:55:54.507Z,2.00
2023-01-18T11:58:31.001Z,2.10
2023-01-18T12:01:08.009Z,2.10
2023-01-18T12:03:47.074Z,2.10
2023-01-18T12:06:41.637Z,2.10
2023-01-18T12:09:18.879Z,2.20
2023-01-18T12:12:19.076Z,2.10
2023-01-18T12:15:00.575Z,2.10
2023-01-18T12:18:12.007Z,2.20
2023-01-18T12:21:20.775Z,2.20
2023-01-18T12:24:10.373Z,2.20
2023-01-18T12:26:49.428Z,2.10
2023-01-18T12:29:37.263Z,2.10
2023-01-18T12:32:18.120Z,2.00
2023-01-18T12:34:50.365Z,2.00
2023-01-18T12:37:21.362Z,2.10
2023-01-18T12:40:06.978Z,2.00
2023-01-18T12:42:48.585Z,2.00
2023-01-18T12:45:38.871Z,2.00
2023-01-18T12:48:14.222Z,2.00
2023-01-18T12:50:42.596Z,2.00
2023-01-18T12:53:50.572Z,2.00
2023-01-18T12:56:27.612Z,2.10
2023-01-18T12:59:00.736Z,2.20
2023-01-18T13:01:32.925Z,2.20
2023-01-18T13:04:07.354Z,2.20
2023-01-18T13:06:35.790Z,2.30
2023-01-18T13:09:13.679Z,2.30
2023-01-18T13:11:43.060Z,2.30
2023-01-18T13:14:25.336Z,2.30
2023-01-18T13:17:25.509Z,2.30
2023-01-18T13:19:59.223Z,2.40
2023-01-18T13:23:10.468Z,2.30
2023-01-18T13:26:17.858Z,2.30
2023-01-18T13:28:44.780Z,2.20
2023-01-18T13:31:11.912Z,2.10
2023-01-18T13:33:56.852Z,2.10
2023-01-18T13:36:23.718Z,2.10
2023-01-18T13:39:00.328Z,2.20
2023-01-18T13:41:29.405Z,2.30
2023-01-18T13:43:59.454Z,2.20
2023-01-18T13:46:27.582Z,2.10
2023-01-18T13:48:57.032Z,2.00
2023-01-18T13:51:38.868Z,2.00
2023-01-18T13:54:28.766Z,2.10
2023-01-18T13:57:01.637Z,2.20
2023-01-18T13:59:32.930Z,2.10
2023-01-18T14:02:31.722Z,2.20
2023-01-18T14:04:59.577Z,2.20
2023-01-18T14:07:27.086Z,2.30
2023-01-18T14:09:54.223Z,2.40
2023-01-18T14:12:47.122Z,2.40
2023-01-18T14:15:47.981Z,2.40
2023-01-18T14:18:30.937Z,2.40
2023-01-18T14:21:22.103Z,2.30
2023-01-18T14:24:19.314Z,2.30
2023-01-18T14:26:46.848Z,2.30
2023-01-18T14:29:27.778Z,2.30
2023-01-18T14:31:56.440Z,2.30
2023-01-18T14:34:29.355Z,2.30
2023-01-18T14:36:57.116Z,2.20
2023-01-18T14:39:24.065Z,2.20
2023-01-18T14:41:56.321Z,2.30
2023-01-18T14:44:27.020Z,2.30
2023-01-18T14:46:56.431Z,2.30
2023-01-18T14:49:32.362Z,2.20
2023-01-18T14:51:59.272Z,2.30
2023-01-18T14:54:26.234Z,2.30
2023-01-18T14:57:01.618Z,2.20
2023-01-18T14:59:29.359Z,2.20
2023-01-18T15:02:13.625Z,2.10
2023-01-18T15:04:40.495Z,2.10
2023-01-18T15:07:16.623Z,2.10
2023-01-18T15:09:44.508Z,2.10
2023-01-18T15:12:16.712Z,2.00
2023-01-18T15:14:49.511Z,2.00
2023-01-18T15:17:23.971Z,2.00
2023-01-18T15:19:55.017Z,2.00
2023-01-18T15:22:32.067Z,2.00
2023-01-18T15:25:00.231Z,2.10
2023-01-18T15:27:31.768Z,2.10
2023-01-18T15:30:01.236Z,2.10
2023-01-18T15:32:33.009Z,2.10
2023-01-18T15:35:01.194Z,2.10
2023-01-18T15:37:36.923Z,2.10
2023-01-18T15:40:05.615Z,2.10
2023-01-18T15:42:48.332Z,2.10
2023-01-18T15:45:25.989Z,2.10
2023-01-18T15:47:57.842Z,2.20
2023-01-18T15:50:30.930Z,2.10
2023-01-18T15:53:02.386Z,2.20
2023-01-18T15:55:37.288Z,2.30
2023-01-18T15:58:11.334Z,2.20
2023-01-18T16:00:53.694Z,2.30
2023-01-18T16:03:25.314Z,2.20
2023-01-18T16:06:22.785Z,2.10
2023-01-18T16:08:55.453Z,2.10
2023-01-18T16:11:26.372Z,2.10
2023-01-18T16:13:58.351Z,2.00
2023-01-18T16:16:26.523Z,2.00
2023-01-18T16:19:14.852Z,1.90
2023-01-18T16:21:47.400Z,1.80
2023-01-18T16:24:26.292Z,1.80
2023-01-18T16:26:54.108Z,1.80
2023-01-18T16:29:21.028Z,1.90
2023-01-18T16:31:47.736Z,1.90
2023-01-18T16:34:25.719Z,2.00
2023-01-18T16:36:53.172Z,2.00
2023-01-18T16:39:20.611Z,2.00
2023-01-18T16:41:57.860Z,2.00
2023-01-18T16:44:26.212Z,2.10
2023-01-18T16:46:52.897Z,2.00
2023-01-18T16:49:19.619Z,2.00
2023-01-18T16:51:46.700Z,2.00
2023-01-18T16:54:13.793Z,2.00
2023-01-18T16:56:40.541Z,2.00
2023-01-18T16:59:25.062Z,2.10
2023-01-18T17:01:51.901Z,2.10
2023-01-18T17:04:18.655Z,2.10
2023-01-18T17:06:45.348Z,2.20
2023-01-18T17:09:22.013Z,2.10
2023-01-18T17:11:49.099Z,2.10
2023-01-18T17:14:16.248Z,2.10
2023-01-18T17:16:44.169Z,2.10
2023-01-18T17:19:19.380Z,2.00
2023-01-18T17:21:47.874Z,2.00
2023-01-18T17:24:15.422Z,2.00
2023-01-18T17:26:42.618Z,2.00
2023-01-18T17:29:13.583Z,2.00
2023-01-18T17:31:51.287Z,1.90
2023-01-18T17:34:27.814Z,1.90
2023-01-18T17:36:56.546Z,1.80
2023-01-18T17:39:28.125Z,1.80
2023-01-18T17:42:04.138Z,1.80
2023-01-18T17:44:36.887Z,1.80
2023-01-18T17:47:04.013Z,1.80
2023-01-18T17:49:30.763Z,1.80
2023-01-18T17:51:57.541Z,1.80
2023-01-18T17:54:24.360Z,1.80
2023-01-18T17:56:51.122Z,1.80
2023-01-18T17:59:17.918Z,1.70
2023-01-18T18:01:44.753Z,1.70
2023-01-18T18:04:11.581Z,1.70
2023-01-18T18:06:40.521Z,1.70
2023-01-18T18:09:12.816Z,1.70
2023-01-18T18:11:39.557Z,1.60
2023-01-18T18:14:06.192Z,1.60
2023-01-18T18:16:40.835Z,1.60
2023-01-18T18:19:10.040Z,1.60
2023-01-18T18:21:36.724Z,1.50
2023-01-18T18:24:03.506Z,1.50
2023-01-18T18:26:30.256Z,1.50
2023-01-18T18:28:56.882Z,1.50
2023-01-18T18:31:23.694Z,1.50
2023-01-18T18:33:50.409Z,1.50
2023-01-18T18:36:17.175Z,1.50
2023-01-18T18:38:43.862Z,1.40
2023-01-18T18:41:10.505Z,1.40
2023-01-18T18:43:37.192Z,1.30
2023-01-18T18:46:04.186Z,1.30
2023-01-18T18:48:30.933Z,1.30
2023-01-18T18:50:57.646Z,1.20
2023-01-18T18:53:36.976Z,1.30
2023-01-18T18:56:05.689Z,1.20
2023-01-18T18:58:33.247Z,1.20
2023-01-18T19:01:00.422Z,1.20
2023-01-18T19:03:27.169Z,1.20
2023-01-18T19:05:54.113Z,1.20
2023-01-18T19:08:20.960Z,1.20
2023-01-18T19:10:51.761Z,1.10
2023-01-18T19:13:19.151Z,1.20
2023-01-18T19:15:47.060Z,1.20
2023-01-18T19:18:14.632Z,1.20
2023-01-18T19:20:41.954Z,1.20
2023-01-18T19:23:10.292Z,1.10
2023-01-18T19:25:40.297Z,1.10
2023-01-18T19:28:07.020Z,1.10
2023-01-18T19:30:33.725Z,1.10
2023-01-18T19:33:01.068Z,1.00
2023-01-18T19:35:28.375Z,1.00
2023-01-18T19:37:55.325Z,0.90
2023-01-18T19:40:22.164Z,0.90
2023-01-18T19:42:51.686Z,0.90
2023-01-18T19:45:27.315Z,0.90
2023-01-18T19:47:56.431Z,0.90
2023-01-18T19:50:23.508Z,0.90
2023-01-18T19:52:50.331Z,0.80
2023-01-18T19:55:17.514Z,0.80
2023-01-18T19:57:44.256Z,0.80
2023-01-18T20:00:11.548Z,0.90
2023-01-18T20:02:38.999Z,0.80
2023-01-18T20:05:06.275Z,0.80
2023-01-18T20:07:33.222Z,0.80
2023-01-18T20:09:59.924Z,0.80
2023-01-18T20:12:26.627Z,0.80
2023-01-18T20:14:53.324Z,0.80
2023-01-18T20:17:20.024Z,0.80
2023-01-18T20:19:46.724Z,0.80
2023-01-18T20:22:13.428Z,0.70
2023-01-18T20:24:40.116Z,0.70
2023-01-18T20:27:15.844Z,0.70
2023-01-18T20:29:43.387Z,0.70
2023-01-18T20:32:16.041Z,0.70
2023-01-18T20:34:44.558Z,0.60
2023-01-18T20:37:12.730Z,0.70
2023-01-18T20:39:39.843Z,0.60
2023-01-18T20:42:06.561Z,0.60
2023-01-18T20:44:33.335Z,0.50
2023-01-18T20:47:00.099Z,0.50
2023-01-18T20:49:37.385Z,0.50
2023-01-18T20:52:05.470Z,0.50
2023-01-18T20:54:33.588Z,0.50
2023-01-18T20:57:01.336Z,0.50
2023-01-18T20:59:28.041Z,0.40
2023-01-18T21:01:54.929Z,0.40
2023-01-18T21:04:21.794Z,0.40
2023-01-18T21:06:48.574Z,0.40
2023-01-18T21:09:15.781Z,0.40
2023-01-18T21:11:42.490Z,0.40
2023-01-18T21:14:09.278Z,0.40
2023-01-18T21:16:36.079Z,0.40
2023-01-18T21:19:02.905Z,0.30
2023-01-18T21:21:29.596Z,0.30
2023-01-18T21:23:56.403Z,0.30
2023-01-18T21:26:23.286Z,0.30
2023-01-18T21:28:50.170Z,0.30
2023-01-18T21:31:17.056Z,0.30
2023-01-18T21:33:43.857Z,0.20
2023-01-18T21:36:16.087Z,0.20
2023-01-18T21:38:43.339Z,0.20
2023-01-18T21:41:10.783Z,0.10
2023-01-18T21:43:37.484Z,0.20
2023-01-18T21:46:07.047Z,0.10
2023-01-18T21:48:33.935Z,0.10
2023-01-18T21:51:05.255Z,0.10
2023-01-18T21:53:32.025Z,0.00
2023-01-18T21:55:59.367Z,0.00
2023-01-18T21:58:26.107Z,0.00
2023-01-18T22:00:52.972Z,0.00
2023-01-18T22:03:19.745Z,0.00
2023-01-18T22:05:46.384Z,0.00
2023-01-18T22:08:13.231Z,-0.10
2023-01-18T22:10:39.948Z,0.00
2023-01-18T22:13:06.824Z,-0.10
2023-01-18T22:15:33.591Z,-0.10
2023-01-18T22:18:00.837Z,-0.20
2023-01-18T22:20:28.480Z,-0.20
2023-01-18T22:22:55.908Z,-0.20
2023-01-18T22:25:22.597Z,-0.20
2023-01-18T22:27:49.325Z,-0.20
2023-01-18T22:30:18.977Z,-0.20
2023-01-18T22:32:45.647Z,-0.20
2023-01-18T22:35:12.368Z,-0.30
2023-01-18T22:37:39.054Z,-0.30
2023-01-18T22:40:06.582Z,-0.30
2023-01-18T22:42:33.222Z,-0.30
2023-01-18T22:44:59.957Z,-0.40
2023-01-18T22:47:27.015Z,-0.30
2023-01-18T22:49:53.716Z,-0.40
2023-01-18T22:52:20.428Z,-0.30
2023-01-18T22:54:47.127Z,-0.30
2023-01-18T22:57:13.829Z,-0.30
2023-01-18T22:59:40.524Z,-0.30
2023-01-18T23:02:07.193Z,-0.30
2023-01-18T23:04:33.955Z,-0.40
2023-01-18T23:07:00.870Z,-0.40
2023-01-18T23:09:27.955Z,-0.40
2023-01-18T23:11:56.753Z,-0.40
2023-01-18T23:14:23.435Z,-0.40
2023-01-18T23:16:50.164Z,-0.40
2023-01-18T23:19:17.005Z,-0.40
2023-01-18T23:21:43.723Z,-0.40
2023-01-18T23:24:10.412Z,-0.50
2023-01-18T23:26:37.121Z,-0.50
2023-01-18T23:29:04.337Z,-0.50
2023-01-18T23:31:31.346Z,-0.50
2023-01-18T23:33:58.039Z,-0.50
2023-01-18T23:36:24.784Z,-0.60
2023-01-18T23:38:51.456Z,-0.50
2023-01-18T23:41:18.484Z,-0.60
2023-01-18T23:43:45.231Z,-0.60
2023-01-18T23:46:11.952Z,-0.60
2023-01-18T23:48:38.666Z,-0.60
2023-01-18T23:51:05.713Z,-0.70
2023-01-18T23:53:32.374Z,-0.70
2023-01-18T23:55:59.892Z,-0.70
2023-01-18T23:58:27.007Z,-0.70
